createdAt,value
2022-09-10T00:00:39.511Z,100371.88
2022-09-10T00:05:38.637Z,100364.41
2022-09-10T00:10:32.371Z,100373.00
2022-09-10T00:15:26.319Z,100381.59
2022-09-10T00:20:20.625Z,100408.78
2022-09-10T00:25:15.331Z,100389.50
2022-09-10T00:30:12.228Z,100410.22
2022-09-10T00:35:07.519Z,100405.28
2022-09-10T00:40:01.043Z,100420.63
2022-09-10T00:45:02.790Z,100399.53
2022-09-10T00:50:24.058Z,100413.03
2022-09-10T00:55:18.584Z,100414.19
2022-09-10T01:00:13.700Z,100410.66
2022-09-10T01:05:15.190Z,100420.38
2022-09-10T01:10:15.225Z,100433.75
2022-09-10T01:15:36.211Z,100424.19
2022-09-10T01:20:32.020Z,100436.44
2022-09-10T01:25:42.955Z,100439.94
2022-09-10T01:30:50.304Z,100424.19
2022-09-10T01:35:54.996Z,100443.06
2022-09-10T01:40:52.822Z,100431.38
2022-09-10T01:46:05.716Z,100460.81
2022-09-10T01:51:17.302Z,100439.13
2022-09-10T01:56:19.629Z,100463.81
2022-09-10T02:01:17.348Z,100477.31
2022-09-10T02:06:15.962Z,100480.13
2022-09-10T02:11:12.300Z,100495.94
2022-09-10T02:16:12.309Z,100519.47
2022-09-10T02:21:08.660Z,100490.72
2022-09-10T02:26:02.518Z,100518.88
2022-09-10T02:30:57.204Z,100497.34
2022-09-10T02:35:50.823Z,100482.38
2022-09-10T02:40:45.617Z,100504.53
2022-09-10T02:45:39.742Z,100514.25
2022-09-10T02:50:34.956Z,100484.81
2022-09-10T02:55:29.843Z,100509.88
2022-09-10T03:00:23.174Z,100491.00
2022-09-10T03:05:16.082Z,100481.97
2022-09-10T03:10:09.589Z,100503.38
2022-09-10T03:15:02.997Z,100487.34
2022-09-10T03:19:56.956Z,100504.09
2022-09-10T03:24:50.197Z,100487.47
2022-09-10T03:29:46.035Z,100482.25
2022-09-10T03:34:40.661Z,100492.41
2022-09-10T03:39:34.386Z,100483.66
2022-09-10T03:44:28.904Z,100484.09
2022-09-10T03:49:23.220Z,100490.56
2022-09-10T03:54:17.465Z,100517.63
2022-09-10T03:59:14.168Z,100531.84
2022-09-10T04:04:09.276Z,100527.34
2022-09-10T04:09:03.155Z,100526.63
2022-09-10T04:13:57.980Z,100531.31
2022-09-10T04:18:53.236Z,100530.16
2022-09-10T04:23:47.063Z,100505.94
2022-09-10T04:28:40.400Z,100492.81
2022-09-10T04:33:34.228Z,100519.19
2022-09-10T04:38:31.245Z,100524.78
2022-09-10T04:43:24.800Z,100503.41
2022-09-10T04:48:18.355Z,100514.81
2022-09-10T04:53:11.278Z,100520.31
2022-09-10T04:58:06.485Z,100512.69
2022-09-10T05:03:00.951Z,100495.09
2022-09-10T05:07:55.956Z,100508.31
2022-09-10T05:12:49.523Z,100508.19
2022-09-10T05:17:42.963Z,100481.38
2022-09-10T05:22:40.490Z,100525.66
2022-09-10T05:27:34.648Z,100503.41
2022-09-10T05:32:29.625Z,100523.69
2022-09-10T05:37:26.856Z,100516.91
2022-09-10T05:42:22.279Z,100507.31
2022-09-10T05:47:15.924Z,100525.09
2022-09-10T05:52:09.880Z,100522.41
2022-09-10T05:57:04.020Z,100491.13
2022-09-10T06:01:58.806Z,100520.31
2022-09-10T06:06:53.112Z,100523.53
2022-09-10T06:11:50.903Z,100523.09
2022-09-10T06:16:46.327Z,100514.06
2022-09-10T06:21:40.815Z,100494.03
2022-09-10T06:26:34.164Z,100519.00
2022-09-10T06:31:32.852Z,100503.44
2022-09-10T06:36:29.463Z,100498.00
2022-09-10T06:41:23.332Z,100521.19
2022-09-10T06:47:02.856Z,100510.19
2022-09-10T06:51:36.335Z,100510.00
2022-09-10T06:56:30.672Z,100514.00
2022-09-10T07:01:26.591Z,100496.97
2022-09-10T07:06:23.604Z,100497.41
2022-09-10T07:11:19.989Z,100507.53
2022-09-10T07:16:14.257Z,100489.38
2022-09-10T07:21:15.249Z,100512.09
2022-09-10T07:26:14.840Z,100507.25
2022-09-10T07:31:25.709Z,100516.91
2022-09-10T07:36:19.297Z,100520.28
2022-09-10T07:41:16.201Z,100506.72
2022-09-10T07:46:13.441Z,100531.28
2022-09-10T07:51:14.036Z,100547.19
2022-09-10T07:56:09.316Z,100509.09
2022-09-10T08:01:12.407Z,100526.19
2022-09-10T08:06:07.476Z,100536.06
2022-09-10T08:11:18.291Z,100545.53
2022-09-10T08:16:17.246Z,100560.47
2022-09-10T08:21:10.481Z,100558.31
2022-09-10T08:26:06.110Z,100550.47
2022-09-10T08:31:02.666Z,100551.31
2022-09-10T08:36:00.166Z,100559.75
2022-09-10T08:40:55.484Z,100524.25
2022-09-10T08:45:52.931Z,100551.97
2022-09-10T08:50:55.828Z,100563.81
2022-09-10T08:55:52.073Z,100581.88
2022-09-10T09:00:46.153Z,100584.81
2022-09-10T09:05:50.131Z,100585.69
2022-09-10T09:10:51.530Z,100565.47
2022-09-10T09:16:06.418Z,100588.78
2022-09-10T09:21:16.728Z,100574.09
2022-09-10T09:26:16.947Z,100575.78
2022-09-10T09:31:21.619Z,100583.97
2022-09-10T09:36:27.343Z,100575.09
2022-09-10T09:41:43.669Z,100577.75
2022-09-10T09:46:39.676Z,100583.13
2022-09-10T09:51:36.354Z,100575.09
2022-09-10T09:56:38.311Z,100569.03
2022-09-10T10:01:33.881Z,100552.09
2022-09-10T10:06:47.660Z,100551.84
2022-09-10T10:11:51.358Z,100574.25
2022-09-10T10:16:44.693Z,100568.03
2022-09-10T10:21:38.741Z,100552.13
2022-09-10T10:26:41.130Z,100544.25
2022-09-10T10:31:44.593Z,100559.19
2022-09-10T10:37:05.611Z,100549.31
2022-09-10T10:42:16.085Z,100551.88
2022-09-10T10:47:12.435Z,100531.41
2022-09-10T10:52:27.096Z,100553.56
2022-09-10T10:57:50.704Z,100542.00
2022-09-10T11:03:17.209Z,100534.38
2022-09-10T11:08:15.740Z,100514.94
2022-09-10T11:13:17.842Z,100507.88
2022-09-10T11:18:21.946Z,100514.63
2022-09-10T11:23:55.764Z,100525.78
2022-09-10T11:29:19.827Z,100502.38
2022-09-10T11:34:24.953Z,100514.09
2022-09-10T11:39:30.325Z,100503.25
2022-09-10T11:44:40.748Z,100499.44
2022-09-10T11:49:58.825Z,100508.31
2022-09-10T11:54:53.378Z,100485.22
2022-09-10T12:00:12.955Z,100487.91
2022-09-10T12:05:37.363Z,100486.19
2022-09-10T12:10:33.645Z,100483.53
2022-09-10T12:15:32.119Z,100471.28
2022-09-10T12:20:32.605Z,100466.63
2022-09-10T12:25:34.818Z,100463.09
2022-09-10T12:30:37.303Z,100467.47
2022-09-10T12:35:36.086Z,100461.13
2022-09-10T12:40:29.119Z,100456.75
2022-09-10T12:45:59.813Z,100447.03
2022-09-10T12:50:57.527Z,100433.53
2022-09-10T12:55:58.235Z,100424.81
2022-09-10T13:00:56.984Z,100410.28
2022-09-10T13:05:54.108Z,100394.22
2022-09-10T13:11:06.685Z,100408.44
2022-09-10T13:16:00.795Z,100403.94
2022-09-10T13:20:55.352Z,100383.25
2022-09-10T13:25:50.712Z,100368.16
2022-09-10T13:30:45.387Z,100378.88
2022-09-10T13:36:07.868Z,100378.00
2022-09-10T13:41:21.883Z,100356.47
2022-09-10T13:46:52.950Z,100366.19
2022-09-10T13:51:55.039Z,100346.47
2022-09-10T13:56:49.141Z,100343.69
2022-09-10T14:01:54.110Z,100346.47
2022-09-10T14:06:48.189Z,100367.03
2022-09-10T14:11:43.423Z,100356.47
2022-09-10T14:16:45.796Z,100360.53
2022-09-10T14:21:39.542Z,100322.97
2022-09-10T14:26:34.454Z,100314.66
2022-09-10T14:31:27.268Z,100350.38
2022-09-10T14:36:43.956Z,100338.69
2022-09-10T14:41:38.580Z,100318.47
2022-09-10T14:47:00.946Z,100339.38
2022-09-10T14:51:54.639Z,100332.50
2022-09-10T14:56:49.272Z,100320.00
2022-09-10T15:01:44.902Z,100332.34
2022-09-10T15:06:38.530Z,100342.78
2022-09-10T15:11:32.808Z,100320.69
2022-09-10T15:16:26.261Z,100317.31
2022-09-10T15:21:20.253Z,100338.41
2022-09-10T15:26:16.544Z,100312.94
2022-09-10T15:31:11.745Z,100340.81
2022-09-10T15:36:07.384Z,100313.22
2022-09-10T15:41:11.284Z,100333.59
2022-09-10T15:46:11.822Z,100327.09
2022-09-10T15:51:14.295Z,100333.47
2022-09-10T15:56:10.583Z,100330.66
2022-09-10T16:01:12.643Z,100300.28
2022-09-10T16:06:08.231Z,100325.28
2022-09-10T16:11:10.357Z,100323.75
2022-09-10T16:16:05.894Z,100325.84
2022-09-10T16:21:32.731Z,100326.00
2022-09-10T16:26:30.072Z,100321.31
2022-09-10T16:31:32.159Z,100321.31
2022-09-10T16:36:26.695Z,100330.19
2022-09-10T16:41:21.052Z,100315.56
2022-09-10T16:46:15.504Z,100314.72
2022-09-10T16:51:17.042Z,100325.69
2022-09-10T16:56:13.653Z,100329.91
2022-09-10T17:01:09.384Z,100333.44
2022-09-10T17:06:04.092Z,100307.81
2022-09-10T17:10:57.770Z,100325.41
2022-09-10T17:15:51.625Z,100321.19
2022-09-10T17:20:45.403Z,100321.03
2022-09-10T17:25:39.728Z,100313.72
2022-09-10T17:30:33.819Z,100321.19
2022-09-10T17:35:28.212Z,100335.66
2022-09-10T17:40:24.544Z,100341.47
2022-09-10T17:45:18.585Z,100332.59
2022-09-10T17:50:13.326Z,100343.69
2022-09-10T17:55:08.506Z,100325.56
2022-09-10T18:00:03.400Z,100328.63
2022-09-10T18:04:58.195Z,100348.31
2022-09-10T18:09:52.062Z,100335.94
2022-09-10T18:14:46.682Z,100351.28
2022-09-10T18:19:40.420Z,100363.50
2022-09-10T18:24:35.464Z,100359.75
2022-09-10T18:29:34.339Z,100335.72
2022-09-10T18:34:36.545Z,100372.81
2022-09-10T18:39:35.880Z,100378.50
2022-09-10T18:44:38.930Z,100378.41
2022-09-10T18:49:40.224Z,100364.16
2022-09-10T18:54:47.856Z,100356.28
2022-09-10T18:59:53.885Z,100369.78
2022-09-10T19:05:11.429Z,100407.97
2022-09-10T19:10:18.018Z,100409.66
2022-09-10T19:15:22.807Z,100382.53
2022-09-10T19:20:18.161Z,100405.16
2022-09-10T19:25:15.764Z,100407.84
2022-09-10T19:30:17.350Z,100412.53
2022-09-10T19:35:14.479Z,100404.94
2022-09-10T19:40:18.362Z,100407.59
2022-09-10T19:45:22.330Z,100415.47
2022-09-10T19:50:27.440Z,100405.75
2022-09-10T19:55:28.303Z,100411.91
2022-09-10T20:00:45.869Z,100430.81
2022-09-10T20:05:50.292Z,100405.88
2022-09-10T20:10:57.092Z,100429.97
2022-09-10T20:15:58.049Z,100430.88
2022-09-10T20:20:57.371Z,100428.59
2022-09-10T20:26:01.512Z,100447.03
2022-09-10T20:31:03.162Z,100451.66
2022-09-10T20:36:05.986Z,100439.72
2022-09-10T20:41:09.358Z,100441.69
2022-09-10T20:46:05.552Z,100440.13
2022-09-10T20:51:03.399Z,100441.53
2022-09-10T20:56:06.590Z,100432.13
2022-09-10T21:01:07.355Z,100433.38
2022-09-10T21:06:01.173Z,100458.69
2022-09-10T21:10:54.913Z,100455.16
2022-09-10T21:15:49.132Z,100451.44
2022-09-10T21:20:43.345Z,100450.13
2022-09-10T21:25:37.515Z,100461.72
2022-09-10T21:30:31.076Z,100442.81
2022-09-10T21:35:24.667Z,100469.72
2022-09-10T21:40:18.971Z,100437.84
2022-09-10T21:45:13.127Z,100484.78
2022-09-10T21:50:06.966Z,100458.03
2022-09-10T21:55:00.912Z,100482.13
2022-09-10T21:59:54.502Z,100485.78
2022-09-10T22:04:48.340Z,100472.50
2022-09-10T22:09:47.152Z,100464.44
2022-09-10T22:14:41.212Z,100464.94
2022-09-10T22:19:36.282Z,100494.34
2022-09-10T22:24:29.780Z,100472.06
2022-09-10T22:29:22.511Z,100459.63
2022-09-10T22:34:17.118Z,100489.22
2022-09-10T22:39:15.927Z,100484.06
2022-09-10T22:44:09.572Z,100502.69
2022-09-10T22:49:04.069Z,100500.00
2022-09-10T22:54:04.991Z,100466.19
2022-09-10T22:59:02.081Z,100458.75
2022-09-10T23:04:00.196Z,100478.88
2022-09-10T23:08:56.055Z,100499.28
2022-09-10T23:13:53.692Z,100477.91
2022-09-10T23:18:55.420Z,100496.50
2022-09-10T23:23:49.832Z,100492.84
2022-09-10T23:28:43.934Z,100475.63
2022-09-10T23:33:38.778Z,100500.72
2022-09-10T23:38:35.309Z,100480.16
2022-09-10T23:43:31.285Z,100499.59
2022-09-10T23:48:25.625Z,100491.56
2022-09-10T23:53:20.378Z,100485.50
2022-09-10T23:58:14.421Z,100501.56
